sensor_id;sensor_type;location;lat;lon;timestamp;pressure;altitude;pressure_sealevel;temperature;humidity
51617;BME280;37697;52.588;13.394;2023-07-28T00:04:07;99766.12;;;16.06;100.00
51617;BME280;37697;52.588;13.394;2023-07-28T00:09:14;99756.06;;;16.07;100.00
51617;BME280;37697;52.588;13.394;2023-07-28T00:14:20;99757.59;;;16.08;100.00
51617;BME280;37697;52.588;13.394;2023-07-28T00:19:28;99749.39;;;16.10;100.00
51617;BME280;37697;52.588;13.394;2023-07-28T00:24:34;99749.25;;;16.11;100.00
51617;BME280;37697;52.588;13.394;2023-07-28T00:29:39;99741.52;;;16.13;100.00
51617;BME280;37697;52.588;13.394;2023-07-28T00:34:45;99738.11;;;16.14;100.00
51617;BME280;37697;52.588;13.394;2023-07-28T00:39:50;99733.14;;;16.16;100.00
51617;BME280;37697;52.588;13.394;2023-07-28T00:44:55;99732.45;;;16.16;100.00
51617;BME280;37697;52.588;13.394;2023-07-28T00:50:01;99731.20;;;16.17;100.00
51617;BME280;37697;52.588;13.394;2023-07-28T00:55:07;99731.71;;;16.19;100.00
51617;BME280;37697;52.588;13.394;2023-07-28T01:00:13;99725.56;;;16.21;100.00
51617;BME280;37697;52.588;13.394;2023-07-28T01:05:19;99726.31;;;16.23;100.00
51617;BME280;37697;52.588;13.394;2023-07-28T01:10:30;99718.13;;;16.26;100.00
51617;BME280;37697;52.588;13.394;2023-07-28T01:15:36;99716.66;;;16.29;100.00
51617;BME280;37697;52.588;13.394;2023-07-28T01:20:41;99712.72;;;16.30;100.00
51617;BME280;37697;52.588;13.394;2023-07-28T01:25:58;99703.48;;;16.32;100.00
51617;BME280;37697;52.588;13.394;2023-07-28T01:31:08;99702.80;;;16.34;100.00
51617;BME280;37697;52.588;13.394;2023-07-28T01:36:14;99701.80;;;16.36;100.00
51617;BME280;37697;52.588;13.394;2023-07-28T01:41:19;99700.27;;;16.38;100.00
51617;BME280;37697;52.588;13.394;2023-07-28T01:46:24;99696.93;;;16.39;100.00
51617;BME280;37697;52.588;13.394;2023-07-28T01:51:30;99706.27;;;16.41;100.00
51617;BME280;37697;52.588;13.394;2023-07-28T01:56:35;99708.74;;;16.42;100.00
51617;BME280;37697;52.588;13.394;2023-07-28T02:01:42;99705.91;;;16.43;100.00
51617;BME280;37697;52.588;13.394;2023-07-28T02:06:47;99701.58;;;16.45;100.00
51617;BME280;37697;52.588;13.394;2023-07-28T02:11:53;99701.84;;;16.46;100.00
51617;BME280;37697;52.588;13.394;2023-07-28T02:16:58;99704.43;;;16.48;100.00
51617;BME280;37697;52.588;13.394;2023-07-28T02:22:04;99697.33;;;16.51;100.00
51617;BME280;37697;52.588;13.394;2023-07-28T02:27:11;99699.77;;;16.51;100.00
51617;BME280;37697;52.588;13.394;2023-07-28T02:32:16;99697.90;;;16.52;100.00
51617;BME280;37697;52.588;13.394;2023-07-28T02:37:22;99693.26;;;16.55;100.00
51617;BME280;37697;52.588;13.394;2023-07-28T02:42:27;99690.41;;;16.56;100.00
51617;BME280;37697;52.588;13.394;2023-07-28T02:47:32;99683.31;;;16.57;100.00
51617;BME280;37697;52.588;13.394;2023-07-28T02:52:38;99677.20;;;16.58;100.00
51617;BME280;37697;52.588;13.394;2023-07-28T02:57:43;99679.43;;;16.59;100.00
51617;BME280;37697;52.588;13.394;2023-07-28T03:02:48;99672.40;;;16.60;100.00
51617;BME280;37697;52.588;13.394;2023-07-28T03:07:54;99670.60;;;16.61;100.00
51617;BME280;37697;52.588;13.394;2023-07-28T03:12:59;99680.39;;;16.63;100.00
51617;BME280;37697;52.588;13.394;2023-07-28T03:18:05;99685.95;;;16.62;100.00
51617;BME280;37697;52.588;13.394;2023-07-28T03:23:10;99691.77;;;16.64;100.00
51617;BME280;37697;52.588;13.394;2023-07-28T03:28:16;99696.22;;;16.64;100.00
51617;BME280;37697;52.588;13.394;2023-07-28T03:33:21;99701.06;;;16.64;100.00
51617;BME280;37697;52.588;13.394;2023-07-28T03:38:26;99703.14;;;16.64;100.00
51617;BME280;37697;52.588;13.394;2023-07-28T03:43:32;99706.09;;;16.65;100.00
51617;BME280;37697;52.588;13.394;2023-07-28T03:48:37;99709.20;;;16.67;100.00
51617;BME280;37697;52.588;13.394;2023-07-28T03:53:43;99713.13;;;16.68;100.00
51617;BME280;37697;52.588;13.394;2023-07-28T03:58:48;99717.42;;;16.69;100.00
51617;BME280;37697;52.588;13.394;2023-07-28T04:03:53;99718.29;;;16.68;100.00
51617;BME280;37697;52.588;13.394;2023-07-28T04:08:59;99722.67;;;16.69;100.00
51617;BME280;37697;52.588;13.394;2023-07-28T04:14:05;99734.77;;;16.71;100.00
51617;BME280;37697;52.588;13.394;2023-07-28T04:19:10;99741.45;;;16.72;100.00
51617;BME280;37697;52.588;13.394;2023-07-28T04:24:15;99738.61;;;16.72;100.00
51617;BME280;37697;52.588;13.394;2023-07-28T04:29:21;99735.77;;;16.74;100.00
51617;BME280;37697;52.588;13.394;2023-07-28T04:34:26;99732.61;;;16.74;100.00
51617;BME280;37697;52.588;13.394;2023-07-28T04:39:32;99726.92;;;16.76;100.00
51617;BME280;37697;52.588;13.394;2023-07-28T04:44:37;99723.65;;;16.80;100.00
51617;BME280;37697;52.588;13.394;2023-07-28T04:49:43;99723.63;;;16.82;100.00
51617;BME280;37697;52.588;13.394;2023-07-28T04:54:48;99722.40;;;16.84;100.00
51617;BME280;37697;52.588;13.394;2023-07-28T04:59:53;99721.88;;;16.85;100.00
51617;BME280;37697;52.588;13.394;2023-07-28T05:04:59;99732.86;;;16.85;100.00
51617;BME280;37697;52.588;13.394;2023-07-28T05:10:05;99735.96;;;16.87;100.00
51617;BME280;37697;52.588;13.394;2023-07-28T05:15:11;99736.83;;;16.91;100.00
51617;BME280;37697;52.588;13.394;2023-07-28T05:20:16;99737.14;;;16.95;100.00
51617;BME280;37697;52.588;13.394;2023-07-28T05:25:22;99738.21;;;16.98;100.00
51617;BME280;37697;52.588;13.394;2023-07-28T05:30:27;99741.02;;;17.03;100.00
51617;BME280;37697;52.588;13.394;2023-07-28T05:35:36;99748.03;;;17.05;100.00
51617;BME280;37697;52.588;13.394;2023-07-28T05:40:41;99749.51;;;17.08;100.00
51617;BME280;37697;52.588;13.394;2023-07-28T05:45:48;99750.91;;;17.11;100.00
51617;BME280;37697;52.588;13.394;2023-07-28T05:50:53;99746.79;;;17.16;100.00
51617;BME280;37697;52.588;13.394;2023-07-28T05:55:59;99752.23;;;17.23;100.00
51617;BME280;37697;52.588;13.394;2023-07-28T06:01:05;99761.09;;;17.25;100.00
51617;BME280;37697;52.588;13.394;2023-07-28T06:06:10;99763.34;;;17.21;100.00
51617;BME280;37697;52.588;13.394;2023-07-28T06:11:15;99767.92;;;17.16;100.00
51617;BME280;37697;52.588;13.394;2023-07-28T06:16:21;99776.41;;;17.14;100.00
51617;BME280;37697;52.588;13.394;2023-07-28T06:21:26;99782.92;;;17.14;100.00
51617;BME280;37697;52.588;13.394;2023-07-28T06:26:32;99801.65;;;17.17;100.00
51617;BME280;37697;52.588;13.394;2023-07-28T06:31:37;99809.25;;;17.19;100.00
51617;BME280;37697;52.588;13.394;2023-07-28T06:36:43;99813.91;;;17.23;100.00
51617;BME280;37697;52.588;13.394;2023-07-28T06:41:48;99821.49;;;17.25;100.00
51617;BME280;37697;52.588;13.394;2023-07-28T06:46:53;99821.30;;;17.32;100.00
51617;BME280;37697;52.588;13.394;2023-07-28T06:51:59;99817.22;;;17.39;100.00
51617;BME280;37697;52.588;13.394;2023-07-28T06:57:05;99816.56;;;17.43;100.00
51617;BME280;37697;52.588;13.394;2023-07-28T07:02:11;99820.33;;;17.50;100.00
51617;BME280;37697;52.588;13.394;2023-07-28T07:07:17;99827.06;;;17.58;100.00
51617;BME280;37697;52.588;13.394;2023-07-28T07:12:22;99832.71;;;17.73;100.00
51617;BME280;37697;52.588;13.394;2023-07-28T07:17:27;99836.19;;;17.82;100.00
51617;BME280;37697;52.588;13.394;2023-07-28T07:22:33;99838.19;;;17.82;100.00
51617;BME280;37697;52.588;13.394;2023-07-28T07:27:38;99842.46;;;17.81;100.00
51617;BME280;37697;52.588;13.394;2023-07-28T07:32:44;99846.98;;;17.75;100.00
51617;BME280;37697;52.588;13.394;2023-07-28T07:37:49;99850.73;;;17.85;100.00
51617;BME280;37697;52.588;13.394;2023-07-28T07:42:55;99851.88;;;18.01;100.00
51617;BME280;37697;52.588;13.394;2023-07-28T07:48:01;99853.53;;;18.11;100.00
51617;BME280;37697;52.588;13.394;2023-07-28T07:53:09;99853.27;;;18.33;100.00
51617;BME280;37697;52.588;13.394;2023-07-28T07:58:14;99851.13;;;18.52;100.00
51617;BME280;37697;52.588;13.394;2023-07-28T08:03:19;99858.20;;;18.82;100.00
51617;BME280;37697;52.588;13.394;2023-07-28T08:08:25;99865.13;;;19.09;100.00
51617;BME280;37697;52.588;13.394;2023-07-28T08:13:32;99876.69;;;19.17;100.00
51617;BME280;37697;52.588;13.394;2023-07-28T08:18:38;99879.42;;;19.04;100.00
51617;BME280;37697;52.588;13.394;2023-07-28T08:23:43;99887.09;;;19.11;100.00
51617;BME280;37697;52.588;13.394;2023-07-28T08:28:49;99887.77;;;19.09;100.00
51617;BME280;37697;52.588;13.394;2023-07-28T08:33:54;99884.21;;;19.19;100.00
51617;BME280;37697;52.588;13.394;2023-07-28T08:38:59;99892.60;;;19.21;100.00
51617;BME280;37697;52.588;13.394;2023-07-28T08:44:05;99895.06;;;19.19;100.00
51617;BME280;37697;52.588;13.394;2023-07-28T08:49:11;99897.58;;;19.24;100.00
51617;BME280;37697;52.588;13.394;2023-07-28T08:54:17;99900.42;;;19.30;100.00
51617;BME280;37697;52.588;13.394;2023-07-28T08:59:26;99905.77;;;19.53;100.00
51617;BME280;37697;52.588;13.394;2023-07-28T09:04:32;99909.25;;;19.67;100.00
51617;BME280;37697;52.588;13.394;2023-07-28T09:09:38;99917.33;;;19.52;100.00
51617;BME280;37697;52.588;13.394;2023-07-28T09:14:44;99927.39;;;19.37;100.00
51617;BME280;37697;52.588;13.394;2023-07-28T09:19:54;99928.10;;;19.28;100.00
51617;BME280;37697;52.588;13.394;2023-07-28T09:25:14;99930.06;;;19.26;100.00
51617;BME280;37697;52.588;13.394;2023-07-28T09:30:20;99929.05;;;19.36;100.00
51617;BME280;37697;52.588;13.394;2023-07-28T09:35:27;99933.02;;;19.65;100.00
51617;BME280;37697;52.588;13.394;2023-07-28T09:40:33;99932.86;;;19.92;100.00
51617;BME280;37697;52.588;13.394;2023-07-28T09:45:39;99935.09;;;19.89;100.00
51617;BME280;37697;52.588;13.394;2023-07-28T09:50:45;99938.73;;;19.85;100.00
51617;BME280;37697;52.588;13.394;2023-07-28T09:55:51;99936.70;;;20.00;100.00
51617;BME280;37697;52.588;13.394;2023-07-28T10:00:56;99941.55;;;20.31;100.00
51617;BME280;37697;52.588;13.394;2023-07-28T10:06:02;99941.05;;;20.52;100.00
51617;BME280;37697;52.588;13.394;2023-07-28T10:11:10;99936.02;;;20.82;100.00
51617;BME280;37697;52.588;13.394;2023-07-28T10:16:17;99928.09;;;20.93;99.44
51617;BME280;37697;52.588;13.394;2023-07-28T10:21:28;99934.48;;;20.91;98.48
51617;BME280;37697;52.588;13.394;2023-07-28T10:26:37;99933.95;;;20.78;97.33
51617;BME280;37697;52.588;13.394;2023-07-28T10:31:54;99939.02;;;20.70;97.16
51617;BME280;37697;52.588;13.394;2023-07-28T10:37:01;99950.79;;;20.50;96.87
51617;BME280;37697;52.588;13.394;2023-07-28T10:42:09;99976.52;;;20.17;97.81
51617;BME280;37697;52.588;13.394;2023-07-28T10:47:14;99990.98;;;19.92;98.62
51617;BME280;37697;52.588;13.394;2023-07-28T10:52:25;99997.99;;;19.61;98.46
51617;BME280;37697;52.588;13.394;2023-07-28T10:57:32;100003.67;;;19.62;99.96
51617;BME280;37697;52.588;13.394;2023-07-28T11:02:40;100004.80;;;19.70;100.00
51617;BME280;37697;52.588;13.394;2023-07-28T11:07:49;99999.21;;;19.83;100.00
51617;BME280;37697;52.588;13.394;2023-07-28T11:13:01;99997.71;;;20.12;100.00
51617;BME280;37697;52.588;13.394;2023-07-28T11:18:20;100002.41;;;20.51;100.00
51617;BME280;37697;52.588;13.394;2023-07-28T11:23:26;100010.25;;;20.43;99.93
51617;BME280;37697;52.588;13.394;2023-07-28T11:28:33;100019.09;;;20.38;100.00
51617;BME280;37697;52.588;13.394;2023-07-28T11:33:40;100018.67;;;20.68;100.00
51617;BME280;37697;52.588;13.394;2023-07-28T11:38:45;100016.84;;;21.07;100.00
51617;BME280;37697;52.588;13.394;2023-07-28T11:43:51;100020.70;;;21.15;100.00
51617;BME280;37697;52.588;13.394;2023-07-28T11:49:07;100034.17;;;21.04;99.38
51617;BME280;37697;52.588;13.394;2023-07-28T11:54:15;100040.27;;;20.78;97.43
51617;BME280;37697;52.588;13.394;2023-07-28T11:59:21;100045.70;;;20.68;98.28
51617;BME280;37697;52.588;13.394;2023-07-28T12:04:28;100052.59;;;20.60;97.59
51617;BME280;37697;52.588;13.394;2023-07-28T12:09:50;100058.89;;;20.40;96.59
51617;BME280;37697;52.588;13.394;2023-07-28T12:15:18;100068.11;;;20.17;97.03
51617;BME280;37697;52.588;13.394;2023-07-28T12:20:32;100068.83;;;19.93;97.15
51617;BME280;37697;52.588;13.394;2023-07-28T12:25:40;100067.15;;;19.84;97.57
51617;BME280;37697;52.588;13.394;2023-07-28T12:30:46;100072.48;;;19.90;98.11
51617;BME280;37697;52.588;13.394;2023-07-28T12:35:55;100071.63;;;19.92;98.62
51617;BME280;37697;52.588;13.394;2023-07-28T12:41:20;100071.19;;;19.96;99.14
51617;BME280;37697;52.588;13.394;2023-07-28T12:46:45;100083.01;;;19.97;99.36
51617;BME280;37697;52.588;13.394;2023-07-28T12:51:51;100092.23;;;20.01;99.08
51617;BME280;37697;52.588;13.394;2023-07-28T12:56:59;100094.85;;;20.07;98.71
51617;BME280;37697;52.588;13.394;2023-07-28T13:02:08;100092.32;;;20.18;99.03
51617;BME280;37697;52.588;13.394;2023-07-28T13:07:13;100095.92;;;20.35;98.94
51617;BME280;37697;52.588;13.394;2023-07-28T13:12:22;100097.98;;;20.69;98.58
51617;BME280;37697;52.588;13.394;2023-07-28T13:17:30;100106.94;;;21.03;98.66
51617;BME280;37697;52.588;13.394;2023-07-28T13:22:36;100101.30;;;21.54;98.92
51617;BME280;37697;52.588;13.394;2023-07-28T13:27:41;100098.58;;;21.89;97.03
51617;BME280;37697;52.588;13.394;2023-07-28T13:32:47;100096.08;;;21.87;94.67
51617;BME280;37697;52.588;13.394;2023-07-28T13:37:52;100101.86;;;21.94;94.17
51617;BME280;37697;52.588;13.394;2023-07-28T13:42:58;100114.86;;;21.99;94.07
51617;BME280;37697;52.588;13.394;2023-07-28T13:48:07;100118.45;;;21.99;92.50
51617;BME280;37697;52.588;13.394;2023-07-28T13:53:29;100123.38;;;21.85;91.62
51617;BME280;37697;52.588;13.394;2023-07-28T13:58:37;100130.06;;;21.76;90.41
51617;BME280;37697;52.588;13.394;2023-07-28T14:03:43;100131.42;;;21.55;89.99
51617;BME280;37697;52.588;13.394;2023-07-28T14:08:49;100135.16;;;21.51;90.70
51617;BME280;37697;52.588;13.394;2023-07-28T14:13:54;100136.64;;;21.59;91.23
51617;BME280;37697;52.588;13.394;2023-07-28T14:19:00;100140.68;;;21.65;90.41
51617;BME280;37697;52.588;13.394;2023-07-28T14:24:06;100144.14;;;21.71;90.15
51617;BME280;37697;52.588;13.394;2023-07-28T14:29:11;100141.83;;;21.72;89.36
51617;BME280;37697;52.588;13.394;2023-07-28T14:34:17;100139.14;;;21.78;88.66
51617;BME280;37697;52.588;13.394;2023-07-28T14:39:22;100138.13;;;21.90;89.43
51617;BME280;37697;52.588;13.394;2023-07-28T14:44:27;100136.55;;;21.98;88.68
51617;BME280;37697;52.588;13.394;2023-07-28T14:49:33;100137.50;;;21.92;87.82
51617;BME280;37697;52.588;13.394;2023-07-28T14:54:38;100147.08;;;21.82;87.32
51617;BME280;37697;52.588;13.394;2023-07-28T14:59:44;100149.84;;;21.76;87.99
51617;BME280;37697;52.588;13.394;2023-07-28T15:04:49;100148.48;;;21.75;87.50
51617;BME280;37697;52.588;13.394;2023-07-28T15:09:55;100148.87;;;21.73;87.57
51617;BME280;37697;52.588;13.394;2023-07-28T15:15:00;100140.43;;;21.87;88.04
51617;BME280;37697;52.588;13.394;2023-07-28T15:20:07;100142.34;;;22.02;87.51
51617;BME280;37697;52.588;13.394;2023-07-28T15:25:13;100153.88;;;22.03;86.87
51617;BME280;37697;52.588;13.394;2023-07-28T15:30:18;100161.41;;;22.05;86.73
51617;BME280;37697;52.588;13.394;2023-07-28T15:35:24;100163.73;;;22.06;86.99
51617;BME280;37697;52.588;13.394;2023-07-28T15:40:30;100162.69;;;22.06;86.93
51617;BME280;37697;52.588;13.394;2023-07-28T15:45:35;100174.05;;;22.02;86.92
51617;BME280;37697;52.588;13.394;2023-07-28T15:50:41;100180.27;;;21.94;86.66
51617;BME280;37697;52.588;13.394;2023-07-28T15:55:46;100184.92;;;21.81;86.25
51617;BME280;37697;52.588;13.394;2023-07-28T16:00:51;100191.35;;;21.66;85.87
51617;BME280;37697;52.588;13.394;2023-07-28T16:05:57;100196.48;;;21.53;86.13
51617;BME280;37697;52.588;13.394;2023-07-28T16:11:02;100192.84;;;21.46;86.40
51617;BME280;37697;52.588;13.394;2023-07-28T16:16:09;100192.48;;;21.53;86.95
51617;BME280;37697;52.588;13.394;2023-07-28T16:21:15;100190.67;;;21.62;86.83
51617;BME280;37697;52.588;13.394;2023-07-28T16:26:21;100186.27;;;21.60;85.85
51617;BME280;37697;52.588;13.394;2023-07-28T16:31:27;100189.75;;;21.52;86.09
51617;BME280;37697;52.588;13.394;2023-07-28T16:36:32;100187.63;;;21.46;86.38
51617;BME280;37697;52.588;13.394;2023-07-28T16:41:37;100185.80;;;21.47;86.72
51617;BME280;37697;52.588;13.394;2023-07-28T16:46:43;100189.76;;;21.44;86.12
51617;BME280;37697;52.588;13.394;2023-07-28T16:51:48;100187.70;;;21.45;86.57
51617;BME280;37697;52.588;13.394;2023-07-28T16:56:54;100190.21;;;21.43;86.48
51617;BME280;37697;52.588;13.394;2023-07-28T17:02:01;100194.21;;;21.42;86.49
51617;BME280;37697;52.588;13.394;2023-07-28T17:07:06;100198.93;;;21.40;86.34
51617;BME280;37697;52.588;13.394;2023-07-28T17:12:12;100194.06;;;21.42;86.76
51617;BME280;37697;52.588;13.394;2023-07-28T17:17:17;100191.66;;;21.41;86.47
51617;BME280;37697;52.588;13.394;2023-07-28T17:22:23;100202.35;;;21.36;86.03
51617;BME280;37697;52.588;13.394;2023-07-28T17:27:28;100198.55;;;21.30;85.76
51617;BME280;37697;52.588;13.394;2023-07-28T17:32:33;100201.77;;;21.32;85.37
51617;BME280;37697;52.588;13.394;2023-07-28T17:37:39;100201.14;;;21.35;85.10
51617;BME280;37697;52.588;13.394;2023-07-28T17:42:44;100205.47;;;21.37;84.46
51617;BME280;37697;52.588;13.394;2023-07-28T17:47:49;100203.35;;;21.31;84.52
51617;BME280;37697;52.588;13.394;2023-07-28T17:52:55;100208.39;;;21.19;84.10
51617;BME280;37697;52.588;13.394;2023-07-28T17:58:00;100210.08;;;21.11;84.31
51617;BME280;37697;52.588;13.394;2023-07-28T18:03:06;100208.55;;;21.09;85.24
51617;BME280;37697;52.588;13.394;2023-07-28T18:08:11;100204.60;;;21.05;86.19
51617;BME280;37697;52.588;13.394;2023-07-28T18:13:20;100199.40;;;20.96;86.25
51617;BME280;37697;52.588;13.394;2023-07-28T18:18:25;100210.88;;;20.81;86.51
51617;BME280;37697;52.588;13.394;2023-07-28T18:23:31;100219.98;;;20.73;86.99
51617;BME280;37697;52.588;13.394;2023-07-28T18:28:36;100228.98;;;20.62;87.57
51617;BME280;37697;52.588;13.394;2023-07-28T18:33:42;100235.05;;;20.55;88.40
51617;BME280;37697;52.588;13.394;2023-07-28T18:38:47;100239.88;;;20.50;89.00
51617;BME280;37697;52.588;13.394;2023-07-28T18:43:52;100246.12;;;20.44;89.61
51617;BME280;37697;52.588;13.394;2023-07-28T18:48:58;100249.75;;;20.32;90.08
51617;BME280;37697;52.588;13.394;2023-07-28T18:54:03;100256.73;;;20.22;90.34
51617;BME280;37697;52.588;13.394;2023-07-28T18:59:09;100255.30;;;20.15;90.63
51617;BME280;37697;52.588;13.394;2023-07-28T19:04:14;100256.63;;;20.07;90.54
51617;BME280;37697;52.588;13.394;2023-07-28T19:09:20;100253.52;;;19.95;90.86
51617;BME280;37697;52.588;13.394;2023-07-28T19:14:25;100255.72;;;19.86;90.90
51617;BME280;37697;52.588;13.394;2023-07-28T19:19:30;100263.10;;;19.78;91.05
51617;BME280;37697;52.588;13.394;2023-07-28T19:24:36;100270.37;;;19.69;91.01
51617;BME280;37697;52.588;13.394;2023-07-28T19:29:42;100274.13;;;19.59;91.05
51617;BME280;37697;52.588;13.394;2023-07-28T19:34:47;100278.64;;;19.45;90.88
51617;BME280;37697;52.588;13.394;2023-07-28T19:39:53;100279.28;;;19.31;91.02
51617;BME280;37697;52.588;13.394;2023-07-28T19:44:58;100284.02;;;19.19;91.23
51617;BME280;37697;52.588;13.394;2023-07-28T19:50:04;100281.12;;;19.07;91.31
51617;BME280;37697;52.588;13.394;2023-07-28T19:55:19;100288.45;;;18.97;91.41
51617;BME280;37697;52.588;13.394;2023-07-28T20:00:25;100294.76;;;18.86;91.43
51617;BME280;37697;52.588;13.394;2023-07-28T20:05:30;100302.43;;;18.75;91.44
51617;BME280;37697;52.588;13.394;2023-07-28T20:10:35;100304.49;;;18.63;91.68
51617;BME280;37697;52.588;13.394;2023-07-28T20:15:41;100304.50;;;18.54;92.05
51617;BME280;37697;52.588;13.394;2023-07-28T20:20:46;100309.19;;;18.46;92.22
51617;BME280;37697;52.588;13.394;2023-07-28T20:25:52;100313.30;;;18.37;92.32
51617;BME280;37697;52.588;13.394;2023-07-28T20:30:58;100318.72;;;18.29;92.44
51617;BME280;37697;52.588;13.394;2023-07-28T20:36:04;100325.22;;;18.20;92.49
51617;BME280;37697;52.588;13.394;2023-07-28T20:41:09;100330.03;;;18.14;92.92
51617;BME280;37697;52.588;13.394;2023-07-28T20:46:15;100332.17;;;18.11;93.71
51617;BME280;37697;52.588;13.394;2023-07-28T20:51:21;100328.46;;;18.08;94.38
51617;BME280;37697;52.588;13.394;2023-07-28T20:56:26;100325.36;;;18.08;95.09
51617;BME280;37697;52.588;13.394;2023-07-28T21:01:31;100325.34;;;18.07;95.40
51617;BME280;37697;52.588;13.394;2023-07-28T21:06:37;100310.30;;;18.07;95.71
51617;BME280;37697;52.588;13.394;2023-07-28T21:11:43;100298.87;;;18.09;96.13
51617;BME280;37697;52.588;13.394;2023-07-28T21:16:48;100305.48;;;18.09;96.51
51617;BME280;37697;52.588;13.394;2023-07-28T21:21:54;100305.34;;;18.06;96.70
51617;BME280;37697;52.588;13.394;2023-07-28T21:26:59;100305.04;;;18.07;97.04
51617;BME280;37697;52.588;13.394;2023-07-28T21:32:06;100293.64;;;18.06;97.34
51617;BME280;37697;52.588;13.394;2023-07-28T21:37:11;100295.23;;;18.06;97.65
51617;BME280;37697;52.588;13.394;2023-07-28T21:42:20;100300.83;;;18.00;97.62
51617;BME280;37697;52.588;13.394;2023-07-28T21:47:26;100306.14;;;17.96;98.18
51617;BME280;37697;52.588;13.394;2023-07-28T21:52:32;100300.96;;;17.95;98.46
51617;BME280;37697;52.588;13.394;2023-07-28T21:57:37;100300.49;;;17.96;98.66
51617;BME280;37697;52.588;13.394;2023-07-28T22:02:43;100300.96;;;17.96;98.89
51617;BME280;37697;52.588;13.394;2023-07-28T22:07:51;100306.22;;;17.95;99.29
51617;BME280;37697;52.588;13.394;2023-07-28T22:12:57;100316.79;;;17.95;99.48
51617;BME280;37697;52.588;13.394;2023-07-28T22:18:02;100325.52;;;17.94;99.72
51617;BME280;37697;52.588;13.394;2023-07-28T22:23:08;100332.19;;;17.93;99.79
51617;BME280;37697;52.588;13.394;2023-07-28T22:28:14;100336.38;;;17.92;99.93
51617;BME280;37697;52.588;13.394;2023-07-28T22:33:19;100338.41;;;17.90;100.00
51617;BME280;37697;52.588;13.394;2023-07-28T22:38:25;100343.11;;;17.87;100.00
51617;BME280;37697;52.588;13.394;2023-07-28T22:43:30;100341.47;;;17.83;100.00
51617;BME280;37697;52.588;13.394;2023-07-28T22:48:36;100348.10;;;17.80;100.00
51617;BME280;37697;52.588;13.394;2023-07-28T22:53:41;100352.12;;;17.75;100.00
51617;BME280;37697;52.588;13.394;2023-07-28T22:58:47;100354.35;;;17.72;100.00
51617;BME280;37697;52.588;13.394;2023-07-28T23:03:52;100360.98;;;17.66;99.97
51617;BME280;37697;52.588;13.394;2023-07-28T23:08:57;100362.13;;;17.58;100.00
51617;BME280;37697;52.588;13.394;2023-07-28T23:14:03;100368.77;;;17.54;100.00
51617;BME280;37697;52.588;13.394;2023-07-28T23:19:08;100367.52;;;17.51;100.00
51617;BME280;37697;52.588;13.394;2023-07-28T23:24:13;100371.23;;;17.44;99.98
51617;BME280;37697;52.588;13.394;2023-07-28T23:29:19;100369.36;;;17.36;100.00
51617;BME280;37697;52.588;13.394;2023-07-28T23:34:24;100366.33;;;17.32;100.00
51617;BME280;37697;52.588;13.394;2023-07-28T23:39:30;100359.98;;;17.30;100.00
51617;BME280;37697;52.588;13.394;2023-07-28T23:44:35;100357.25;;;17.26;100.00
51617;BME280;37697;52.588;13.394;2023-07-28T23:49:41;100349.73;;;17.17;100.00
51617;BME280;37697;52.588;13.394;2023-07-28T23:54:46;100344.20;;;17.13;100.00
51617;BME280;37697;52.588;13.394;2023-07-28T23:59:51;100335.39;;;17.07;100.00
